Portada
METAR-TAF:

METAR-TAF

Aeroports :

Clayton Lake, Maine, Estats Units d'Amèrica

latitud: 46-37N, longitud: 069-32W, altitud: 314 m

Observació

L'informe es va fer fa 50 minuts, a les 19:16 UTC
Vent 4 kt amb direcció variable amb ràfegues de 12 kt
Temperatura 15°C
Humitat 67%
Pressió 1014 hPa

METAR: K40B 151916Z AUTO VRB04G12KT 15/09 A2995 RMK AO1 SLP143 T01480092 57006

Hora: 16:06 (20:06 UTC)


TAF: manca

Observacions i pronòstics meteorològics de més de 4000 aeroports (METAR i TAF).

Les estacions disponibles són els punts grocs i vermells al mapa.

Posi el ratolí al punt desitjat per veure el nom de l'estació.

Feu clic per veure les observacions i els pronòstics meteorològics.

Per canviar el mapa: feu clic els botons verds amb una creu de color negre per apropar; al botó verd amb un guió per allunyar la imatge; o en les fletxes verdes per a mapes adjacents.


METAR-TAF: